Weather reports worldwide

Advertisment
Puerto Leitariegos, Spain (8052): temperature & dewpoint: 20.03.2019 20:00:00 - 26.03.2019 20:00:00 (CET)Puerto Leitariegos, Spain (8052): wind speed & gusts: 20.03.2019 20:00:00 - 26.03.2019 20:00:00 (CET)Puerto Leitariegos, Spain (8052): wind direction: 20.03.2019 20:00:00 - 26.03.2019 20:00:00 (CET)Puerto Leitariegos, Spain (8052): visibility: 20.03.2019 20:00:00 - 26.03.2019 20:00:00 (CET)Puerto Leitariegos, Spain (8052): sunshine duration: 20.03.2019 20:00:00 - 26.03.2019 20:00:00 (CET)Puerto Leitariegos, Spain (8052): precipitation: 20.03.2019 20:00:00 - 26.03.2019 20:00:00 (CET)
Date & Time tt [°C] td [°C] ff [km/h] ff [kn] fx [km/h] fx [kn] dd vv [km] sd [min] rr [mm]
26.03.2019 20:00:00 - - - - - - - - - -
26.03.2019 19:00:00 4,6 1,1 11 6 18 10 NW 20 5 -
26.03.2019 18:00:00 7,9 2,4 16 8 31 17 NW 20 60 0,0
26.03.2019 17:00:00 10,0 2,4 13 7 29 16 NNW 20 60 0,0
26.03.2019 16:00:00 - - - - - - - - - -
26.03.2019 15:00:00 - - - - - - - - - -
26.03.2019 14:00:00 - - - - - - - - - -
26.03.2019 13:00:00 14,0 -13,9 25 13 61 33 SSE 20 60 -
26.03.2019 12:00:00 12,5 -17,1 29 15 60 33 SSE 20 60 0,0
26.03.2019 11:00:00 11,4 -14,2 28 15 50 27 SSE 20 60 0,0
26.03.2019 10:00:00 10,1 -14,5 24 13 39 21 S 20 60 0,0
26.03.2019 09:00:00 6,8 -13,3 17 9 29 16 SSE 20 56 0,0
26.03.2019 08:00:00 2,2 -9,6 7 4 15 8 SE 20 0 0,0
26.03.2019 07:00:00 1,5 -9,1 11 6 22 12 SE 20 0 -
26.03.2019 06:00:00 -2,1 -6,8 9 5 13 7 ESE 20 0 0,0
26.03.2019 05:00:00 -1,1 -7,4 8 4 16 9 SE 20 0 0,0
26.03.2019 04:00:00 -0,4 -8,5 8 5 13 7 SE 20 0 0,0
26.03.2019 03:00:00 -0,6 -8,0 4 2 6 3 N 20 0 0,0
26.03.2019 02:00:00 0,1 -8,5 2 1 16 9 NNW 20 0 0,0
26.03.2019 01:00:00 2,6 -9,9 5 3 17 9 ESE 20 0 -
26.03.2019 00:00:00 - - - - - - - - - -
25.03.2019 23:00:00 2,5 -6,8 5 3 16 9 SSW 20 0 0,0
25.03.2019 22:00:00 4,0 -7,4 6 4 34 18 NW 20 0 0,0
25.03.2019 21:00:00 4,2 -6,1 15 8 28 15 NE 20 0 0,0
25.03.2019 20:00:00 3,6 -4,3 11 6 18 10 NE 20 0 0,0
25.03.2019 19:00:00 5,0 -0,6 6 4 22 12 W 20 4 -
25.03.2019 18:00:00 - - - - - - - - - -
25.03.2019 17:00:00 9,3 3,3 17 9 25 14 WNW 18 60 0,0
25.03.2019 16:00:00 10,1 4,1 14 7 27 14 NW 17 60 0,0
25.03.2019 15:00:00 - - - - - - - - - -
25.03.2019 14:00:00 8,8 3,6 18 10 25 13 NW 20 60 0,0
25.03.2019 13:00:00 - - - - - - - - - -
25.03.2019 12:00:00 6,3 2,2 18 10 28 15 WNW 14 60 0,0
25.03.2019 11:00:00 - - - - - - - - - -
25.03.2019 10:00:00 5,2 -1,7 4 2 13 7 NNW 20 60 0,0
25.03.2019 09:00:00 - - - - - - - - - -
25.03.2019 08:00:00 1,2 -5,0 1 1 5 3 W 20 0 0,0
25.03.2019 07:00:00 1,1 -4,9 1 1 3 2 NW 20 0 -
25.03.2019 06:00:00 1,4 -4,8 1 1 6 3 NNE 20 0 0,0
25.03.2019 05:00:00 2,9 -3,6 4 2 7 4 SSE 20 0 0,0
25.03.2019 04:00:00 - - - - - - - - - -
25.03.2019 03:00:00 2,8 -4,2 2 1 10 5 ESE 20 0 0,0
25.03.2019 02:00:00 4,1 -3,4 6 3 11 6 SSE 20 0 0,0
25.03.2019 01:00:00 3,7 -2,0 5 3 10 6 SSE 20 0 -
25.03.2019 00:00:00 - - - - - - - - - -
24.03.2019 23:00:00 5,9 -1,9 7 4 18 10 E 20 0 0,0
24.03.2019 22:00:00 4,6 -1,8 5 3 20 11 NNE 20 0 0,0
24.03.2019 21:00:00 2,8 1,2 14 8 22 12 NNW 20 0 0,0
24.03.2019 20:00:00 - - - - - - - - - -
24.03.2019 19:00:00 6,8 3,6 16 9 25 13 NNW 20 2 -
24.03.2019 18:00:00 10,2 3,3 16 9 31 17 NW 20 55 0,0
24.03.2019 17:00:00 11,4 3,9 18 10 29 16 WNW 20 55 0,0
24.03.2019 16:00:00 13,1 3,2 16 9 33 18 WNW 20 59 0,0
24.03.2019 15:00:00 13,1 3,8 16 8 29 16 WNW 20 60 0,0
24.03.2019 14:00:00 12,9 4,4 16 9 32 17 WNW 20 40 0,0
24.03.2019 13:00:00 - - - - - - - - - -
24.03.2019 12:00:00 14,1 1,7 6 3 19 10 NW 20 60 0,0
24.03.2019 11:00:00 13,3 -0,3 10 5 17 9 SSE 20 60 0,0
24.03.2019 10:00:00 - - - - - - - - - -
24.03.2019 09:00:00 8,3 -0,9 4 2 11 6 SE 20 53 0,0
24.03.2019 08:00:00 5,3 -2,3 8 4 12 7 S 20 0 0,0
24.03.2019 07:00:00 - - - - - - - - - -
24.03.2019 06:00:00 4,9 -2,6 7 4 15 8 S 20 0 0,0
24.03.2019 05:00:00 5,1 -2,7 7 4 14 8 SSE 20 0 0,0
24.03.2019 04:00:00 5,3 -2,7 8 4 12 7 SSE 20 0 0,0
24.03.2019 03:00:00 5,2 -2,4 8 5 14 7 SSE 20 0 0,0
24.03.2019 02:00:00 5,2 -1,7 7 4 10 6 SSE 20 0 0,0
24.03.2019 01:00:00 5,3 -1,8 5 3 10 5 SE 20 0 -
24.03.2019 00:00:00 5,7 -2,1 4 2 11 6 SSE 20 0 0,0
23.03.2019 23:00:00 4,9 -2,0 4 2 10 5 SSE 20 0 0,0
23.03.2019 22:00:00 5,0 -1,4 3 2 10 6 SSE 20 0 0,0
23.03.2019 21:00:00 5,4 -1,3 6 4 11 6 S 20 0 0,0
23.03.2019 20:00:00 6,2 -0,3 5 3 18 10 NNW 20 0 0,0
23.03.2019 19:00:00 8,2 0,5 14 8 22 12 W 20 0 -
23.03.2019 18:00:00 11,0 -0,4 16 9 26 14 WNW 20 42 0,0
23.03.2019 17:00:00 - - - - - - - - - -
23.03.2019 16:00:00 11,8 -1,0 13 7 25 13 WNW 20 32 0,0
23.03.2019 15:00:00 - - - - - - - - - -
23.03.2019 14:00:00 14,6 -3,2 8 4 33 18 SE 20 60 0,0
23.03.2019 13:00:00 13,9 -4,3 10 5 23 13 S 20 60 -
23.03.2019 12:00:00 12,6 -4,0 11 6 22 12 SE 20 60 0,0
23.03.2019 11:00:00 - - - - - - - - - -
23.03.2019 10:00:00 8,9 -3,0 11 6 16 9 SE 20 60 0,0
23.03.2019 09:00:00 5,7 -3,1 7 4 10 5 SE 20 51 0,0
23.03.2019 08:00:00 2,2 -4,7 6 3 19 10 SE 20 0 0,0
23.03.2019 07:00:00 2,3 -4,6 13 7 18 10 S 20 0 -
23.03.2019 06:00:00 - - - - - - - - - -
23.03.2019 05:00:00 3,0 -4,7 15 8 22 12 S 20 0 0,0
23.03.2019 04:00:00 3,0 -4,4 14 7 21 11 S 20 0 0,0
23.03.2019 03:00:00 - - - - - - - - - -
23.03.2019 02:00:00 2,4 -4,1 11 6 15 8 SE 20 0 0,0
23.03.2019 01:00:00 3,1 -4,1 11 6 21 11 SSE 20 0 -
23.03.2019 00:00:00 3,4 -3,8 10 5 17 9 S 20 0 0,0
22.03.2019 23:00:00 - - - - - - - - - -
22.03.2019 22:00:00 4,2 0,7 7 4 12 6 SSE 20 0 0,0
22.03.2019 21:00:00 - - - - - - - - - -
22.03.2019 20:00:00 4,8 1,1 10 5 20 11 WNW 20 0 0,0
22.03.2019 19:00:00 6,8 1,5 14 7 27 15 WNW 20 0 -
22.03.2019 18:00:00 9,0 0,2 18 10 33 18 WNW 20 58 0,0
22.03.2019 17:00:00 - - - - - - - - - -
22.03.2019 16:00:00 11,4 -1,7 17 9 29 16 WNW 20 60 0,0
22.03.2019 15:00:00 12,2 -1,0 11 6 23 12 NW 20 60 0,0
22.03.2019 14:00:00 11,9 -5,1 7 4 16 8 NNW 20 60 0,0
22.03.2019 13:00:00 12,8 -3,9 5 3 14 8 ESE 20 60 -
22.03.2019 12:00:00 11,0 -3,1 4 2 14 8 NE 20 60 0,0
22.03.2019 11:00:00 - - - - - - - - - -
22.03.2019 10:00:00 6,6 -2,0 5 3 11 6 SE 20 60 0,0
22.03.2019 09:00:00 2,1 -3,0 9 5 14 7 SE 20 49 0,0
22.03.2019 08:00:00 - - - - - - - - - -
22.03.2019 07:00:00 -1,1 -4,3 9 5 13 7 SSE 20 0 -
22.03.2019 06:00:00 -0,8 -4,1 9 5 12 7 SE 20 0 0,0
22.03.2019 05:00:00 -0,6 -4,1 8 4 11 6 SE 20 0 0,0
22.03.2019 04:00:00 -0,1 -4,2 7 4 13 7 SSE 20 0 0,0
22.03.2019 03:00:00 0,4 -4,0 8 5 12 7 SSE 20 0 0,0
22.03.2019 02:00:00 - - - - - - - - - -
22.03.2019 01:00:00 1,1 -4,1 10 5 19 11 S 20 0 -
22.03.2019 00:00:00 2,0 -4,3 11 6 18 10 S 20 0 0,0
21.03.2019 23:00:00 2,6 -4,1 8 4 19 11 S 20 0 0,0
21.03.2019 22:00:00 - - - - - - - - - -
21.03.2019 21:00:00 2,7 -1,6 2 1 13 7 NNW 20 0 0,0
21.03.2019 20:00:00 - - - - - - - - - -
21.03.2019 19:00:00 4,4 1,8 13 7 20 11 NW 20 0 -
21.03.2019 18:00:00 6,7 2,4 15 8 23 12 NW 20 55 0,0
21.03.2019 17:00:00 - - - - - - - - - -
21.03.2019 16:00:00 - - - - - - - - - -
21.03.2019 15:00:00 8,2 2,2 19 10 26 14 NNW 20 60 0,0
21.03.2019 14:00:00 7,7 1,6 18 10 24 13 NW 20 60 0,0
21.03.2019 13:00:00 7,7 1,3 14 8 20 11 NW 20 60 -
21.03.2019 12:00:00 - - - - - - - - - -
21.03.2019 11:00:00 8,1 -5,7 14 7 22 12 SSE 20 60 0,0
21.03.2019 10:00:00 4,8 -4,4 11 6 17 9 SE 20 60 0,0
21.03.2019 09:00:00 1,4 -3,8 10 5 16 9 SE 20 48 0,0
21.03.2019 08:00:00 -1,3 -5,5 10 6 13 7 SE 20 0 0,0
21.03.2019 07:00:00 -1,0 -6,3 10 6 14 8 SE 20 0 -
21.03.2019 06:00:00 0,3 -6,5 8 4 12 7 SE 20 0 0,0
21.03.2019 05:00:00 1,5 -8,3 3 2 10 5 SE 20 0 0,0
21.03.2019 04:00:00 1,7 -7,6 2 1 6 3 WNW 20 0 0,0
21.03.2019 03:00:00 - - - - - - - - - -
21.03.2019 02:00:00 1,7 -8,9 6 3 15 8 SE 20 0 0,0
21.03.2019 01:00:00 - - - - - - - - - -
21.03.2019 00:00:00 1,5 -3,9 4 2 15 8 SE 20 0 0,0
20.03.2019 23:00:00 - - - - - - - - - -
20.03.2019 22:00:00 1,9 -0,7 3 2 9 5 SSE 20 0 0,0
20.03.2019 21:00:00 - - - - - - - - - -
20.03.2019 20:00:00 2,7 1,8 13 7 17 9 WNW 0,1 0 0,0

tt = temperature
td = dewpoint
ff = wind speed
fx = gusts
dd = wind direction
vv = visibility
sd = sunshine duration
rr = precipitation

Next stations